createdAt,value
2023-05-05T00:02:16.103Z,11.11
2023-05-05T00:04:43.404Z,11.13
2023-05-05T00:07:10.719Z,11.04
2023-05-05T00:09:37.951Z,11.14
2023-05-05T00:12:06.882Z,11.10
2023-05-05T00:14:34.271Z,11.04
2023-05-05T00:17:01.626Z,10.93
2023-05-05T00:19:28.926Z,11.04
2023-05-05T00:21:56.266Z,10.96
2023-05-05T00:24:23.475Z,10.95
2023-05-05T00:26:50.741Z,11.00
2023-05-05T00:29:19.392Z,10.96
2023-05-05T00:31:46.651Z,10.92
2023-05-05T00:34:13.921Z,10.96
2023-05-05T00:36:41.277Z,10.98
2023-05-05T00:39:08.820Z,10.95
2023-05-05T00:41:36.163Z,10.89
2023-05-05T00:44:03.552Z,10.84
2023-05-05T00:46:34.583Z,10.91
2023-05-05T00:49:02.165Z,10.87
2023-05-05T00:51:29.556Z,10.80
2023-05-05T00:53:57.051Z,10.81
2023-05-05T00:56:24.558Z,10.71
2023-05-05T00:58:51.915Z,10.72
2023-05-05T01:01:19.199Z,10.70
2023-05-05T01:03:48.004Z,10.63
2023-05-05T01:06:28.066Z,10.64
2023-05-05T01:09:08.707Z,10.58
2023-05-05T01:11:44.414Z,10.55
2023-05-05T01:14:14.483Z,10.56
2023-05-05T01:16:53.489Z,10.54
2023-05-05T01:19:46.532Z,10.55
2023-05-05T01:22:18.439Z,10.48
2023-05-05T01:25:12.519Z,10.47
2023-05-05T01:27:54.974Z,10.50
2023-05-05T01:31:00.482Z,10.53
2023-05-05T01:33:35.828Z,10.44
2023-05-05T01:36:07.709Z,10.47
2023-05-05T01:38:39.680Z,10.42
2023-05-05T01:41:12.990Z,10.44
2023-05-05T01:43:43.471Z,10.38
2023-05-05T01:46:11.910Z,10.48
2023-05-05T01:48:42.854Z,10.39
2023-05-05T01:51:12.052Z,10.35
2023-05-05T01:53:40.086Z,10.47
2023-05-05T01:56:09.306Z,10.33
2023-05-05T01:58:38.075Z,10.34
2023-05-05T02:01:06.660Z,10.32
2023-05-05T02:03:35.691Z,10.23
2023-05-05T02:06:07.189Z,10.21
2023-05-05T02:08:37.539Z,10.27
2023-05-05T02:11:05.893Z,10.15
2023-05-05T02:13:33.497Z,10.11
2023-05-05T02:16:02.940Z,10.06
2023-05-05T02:18:31.856Z,10.12
2023-05-05T02:20:59.217Z,10.05
2023-05-05T02:23:28.260Z,9.95
2023-05-05T02:25:59.850Z,9.92
2023-05-05T02:28:35.078Z,9.89
2023-05-05T02:31:04.705Z,9.86
2023-05-05T02:33:33.686Z,9.84
2023-05-05T02:36:08.369Z,9.79
2023-05-05T02:38:41.704Z,9.81
2023-05-05T02:41:12.843Z,9.76
2023-05-05T02:43:43.457Z,9.78
2023-05-05T02:46:11.335Z,9.76
2023-05-05T02:48:40.684Z,9.68
2023-05-05T02:51:08.012Z,9.66
2023-05-05T02:53:40.091Z,9.65
2023-05-05T02:56:16.205Z,9.65
2023-05-05T02:58:53.884Z,9.62
2023-05-05T03:01:29.447Z,9.58
2023-05-05T03:04:06.295Z,9.59
2023-05-05T03:06:41.577Z,9.58
2023-05-05T03:09:16.134Z,9.48
2023-05-05T03:11:49.500Z,9.49
2023-05-05T03:14:19.172Z,9.45
2023-05-05T03:16:49.893Z,9.47
2023-05-05T03:19:19.054Z,9.41
2023-05-05T03:21:48.912Z,9.36
2023-05-05T03:24:19.128Z,9.35
2023-05-05T03:26:54.492Z,9.32
2023-05-05T03:29:25.536Z,9.32
2023-05-05T03:31:53.369Z,9.28
2023-05-05T03:34:21.171Z,9.23
2023-05-05T03:36:49.221Z,9.26
2023-05-05T03:39:18.497Z,9.31
2023-05-05T03:41:46.078Z,9.21
2023-05-05T03:44:15.101Z,9.14
2023-05-05T03:46:42.690Z,9.14
2023-05-05T03:49:12.855Z,9.05
2023-05-05T03:51:42.011Z,9.07
2023-05-05T03:54:09.391Z,9.05
2023-05-05T03:56:38.705Z,9.19
2023-05-05T03:59:06.003Z,9.13
2023-05-05T04:01:33.449Z,9.01
2023-05-05T04:04:01.161Z,9.06
2023-05-05T04:06:28.567Z,9.01
2023-05-05T04:08:55.845Z,9.05
2023-05-05T04:11:23.476Z,9.00
2023-05-05T04:13:54.202Z,9.03
2023-05-05T04:16:21.969Z,9.08
2023-05-05T04:18:49.703Z,9.15
2023-05-05T04:21:17.219Z,9.10
2023-05-05T04:23:45.098Z,9.08
2023-05-05T04:26:12.353Z,9.11
2023-05-05T04:28:39.637Z,9.16
2023-05-05T04:31:08.572Z,9.21
2023-05-05T04:33:38.777Z,9.23
2023-05-05T04:36:07.031Z,9.30
2023-05-05T04:38:34.398Z,9.39
2023-05-05T04:41:04.850Z,9.49
2023-05-05T04:43:32.224Z,9.58
2023-05-05T04:45:59.692Z,9.59
2023-05-05T04:48:32.326Z,9.76
2023-05-05T04:51:04.102Z,9.74
2023-05-05T04:53:31.687Z,9.71
2023-05-05T04:55:59.615Z,9.83
2023-05-05T04:58:27.778Z,9.84
2023-05-05T05:00:55.763Z,9.93
2023-05-05T05:03:23.613Z,9.95
2023-05-05T05:05:52.273Z,9.93
2023-05-05T05:08:20.245Z,9.97
2023-05-05T05:10:47.445Z,9.95
2023-05-05T05:13:15.111Z,9.99
2023-05-05T05:15:42.741Z,9.98
2023-05-05T05:18:10.010Z,10.03
2023-05-05T05:20:38.628Z,10.02
2023-05-05T05:23:07.319Z,10.00
2023-05-05T05:25:38.438Z,9.94
2023-05-05T05:28:09.623Z,9.94
2023-05-05T05:30:43.581Z,9.94
2023-05-05T05:33:11.890Z,10.02
2023-05-05T05:35:40.069Z,10.01
2023-05-05T05:38:09.221Z,10.04
2023-05-05T05:40:36.664Z,10.10
2023-05-05T05:43:04.291Z,10.25
2023-05-05T05:45:32.556Z,10.39
2023-05-05T05:48:00.060Z,10.61
2023-05-05T05:50:27.456Z,11.07
2023-05-05T05:52:55.580Z,11.33
2023-05-05T05:55:24.710Z,11.52
2023-05-05T05:57:52.729Z,12.04
2023-05-05T06:00:20.693Z,11.89
2023-05-05T06:02:54.677Z,12.06
2023-05-05T06:05:25.295Z,12.23
2023-05-05T06:07:52.864Z,12.15
2023-05-05T06:10:28.033Z,12.21
2023-05-05T06:13:04.869Z,12.21
2023-05-05T06:15:33.583Z,12.23
2023-05-05T06:18:03.249Z,12.35
2023-05-05T06:20:31.302Z,12.34
2023-05-05T06:22:58.913Z,12.00
2023-05-05T06:25:27.836Z,12.03
2023-05-05T06:27:55.091Z,12.28
2023-05-05T06:30:23.799Z,12.46
2023-05-05T06:32:51.149Z,12.38
2023-05-05T06:35:18.412Z,12.30
2023-05-05T06:37:45.767Z,12.33
2023-05-05T06:40:13.274Z,12.40
2023-05-05T06:42:40.516Z,12.32
2023-05-05T06:45:11.458Z,12.31
2023-05-05T06:47:40.510Z,12.38
2023-05-05T06:50:09.117Z,12.52
2023-05-05T06:52:37.086Z,12.72
2023-05-05T06:55:04.876Z,12.79
2023-05-05T06:57:32.352Z,12.72
2023-05-05T07:00:00.012Z,12.44
2023-05-05T07:02:27.401Z,12.44
2023-05-05T07:04:56.041Z,12.44
2023-05-05T07:07:23.472Z,12.54
2023-05-05T07:09:50.793Z,12.36
2023-05-05T07:12:18.086Z,12.46
2023-05-05T07:14:46.419Z,12.41
2023-05-05T07:17:13.660Z,12.53
2023-05-05T07:19:40.842Z,12.66
2023-05-05T07:22:09.567Z,12.58
2023-05-05T07:24:36.749Z,12.59
2023-05-05T07:27:04.126Z,12.54
2023-05-05T07:29:31.388Z,12.56
2023-05-05T07:31:58.695Z,12.59
2023-05-05T07:34:25.942Z,12.36
2023-05-05T07:36:53.303Z,12.28
2023-05-05T07:39:22.028Z,12.14
2023-05-05T07:41:49.306Z,11.86
2023-05-05T07:44:16.631Z,11.69
2023-05-05T07:46:43.935Z,11.51
2023-05-05T07:49:11.127Z,11.34
2023-05-05T07:51:38.521Z,11.18
2023-05-05T07:54:05.928Z,11.14
2023-05-05T07:56:34.681Z,11.13
2023-05-05T07:59:01.924Z,11.12
2023-05-05T08:01:29.186Z,11.17
2023-05-05T08:03:56.510Z,11.21
2023-05-05T08:06:24.193Z,11.26
2023-05-05T08:08:51.422Z,11.41
2023-05-05T08:11:18.905Z,11.66
2023-05-05T08:13:47.827Z,11.85
2023-05-05T08:16:15.239Z,12.10
2023-05-05T08:18:42.524Z,12.29
2023-05-05T08:21:10.628Z,12.34
2023-05-05T08:23:38.815Z,12.46
2023-05-05T08:26:06.865Z,12.76
2023-05-05T08:28:34.863Z,13.10
2023-05-05T08:31:03.810Z,13.45
2023-05-05T08:33:31.112Z,13.75
2023-05-05T08:35:58.549Z,13.90
2023-05-05T08:38:25.923Z,13.98
2023-05-05T08:40:53.254Z,13.87
2023-05-05T08:43:21.020Z,13.70
2023-05-05T08:45:49.282Z,13.95
2023-05-05T08:48:18.771Z,13.67
2023-05-05T08:50:49.655Z,13.59
2023-05-05T08:53:18.008Z,13.59
2023-05-05T08:55:50.641Z,13.33
2023-05-05T08:58:18.796Z,13.11
2023-05-05T09:00:46.341Z,13.00
2023-05-05T09:03:14.514Z,12.96
2023-05-05T09:05:43.760Z,13.04
2023-05-05T09:08:11.648Z,12.86
2023-05-05T09:10:41.158Z,12.85
2023-05-05T09:13:09.913Z,12.94
2023-05-05T09:15:37.181Z,12.91
2023-05-05T09:18:06.593Z,12.72
2023-05-05T09:20:35.101Z,12.57
2023-05-05T09:23:10.417Z,12.45
2023-05-05T09:25:38.101Z,12.38
2023-05-05T09:28:10.651Z,12.34
2023-05-05T09:30:39.607Z,12.58
2023-05-05T09:33:07.348Z,12.68
2023-05-05T09:35:51.633Z,12.79
2023-05-05T09:38:21.674Z,12.99
2023-05-05T09:40:50.210Z,13.23
2023-05-05T09:43:19.333Z,13.38
2023-05-05T09:45:48.113Z,13.60
2023-05-05T09:48:25.930Z,13.64
2023-05-05T09:50:54.362Z,13.82
2023-05-05T09:53:23.887Z,13.98
2023-05-05T09:55:55.237Z,14.34
2023-05-05T09:58:24.396Z,14.66
2023-05-05T10:00:51.760Z,15.19
2023-05-05T10:03:19.558Z,15.46
2023-05-05T10:05:48.513Z,16.63
2023-05-05T10:08:16.599Z,17.10
2023-05-05T10:10:49.910Z,17.17
2023-05-05T10:13:19.666Z,16.93
2023-05-05T10:15:48.450Z,16.70
2023-05-05T10:18:19.613Z,16.52
2023-05-05T10:20:51.770Z,16.20
2023-05-05T10:23:22.680Z,16.34
2023-05-05T10:25:54.485Z,16.78
2023-05-05T10:28:31.471Z,16.83
2023-05-05T10:31:02.045Z,17.78
2023-05-05T10:33:39.567Z,18.07
2023-05-05T10:36:07.778Z,17.94
2023-05-05T10:38:37.300Z,17.52
2023-05-05T10:41:06.717Z,17.48
2023-05-05T10:43:34.257Z,17.56
2023-05-05T10:46:02.221Z,17.89
2023-05-05T10:48:34.619Z,17.82
2023-05-05T10:51:38.332Z,18.09
2023-05-05T10:54:13.787Z,18.92
2023-05-05T10:56:43.262Z,18.86
2023-05-05T10:59:41.564Z,19.16
2023-05-05T11:02:22.587Z,20.04
2023-05-05T11:05:13.332Z,19.76
2023-05-05T11:07:41.833Z,20.55
2023-05-05T11:10:10.263Z,21.10
2023-05-05T11:13:11.135Z,21.47
2023-05-05T11:15:40.265Z,21.46
2023-05-05T11:18:08.392Z,22.48
2023-05-05T11:21:01.810Z,21.96
2023-05-05T11:23:29.895Z,22.13
2023-05-05T11:25:57.464Z,22.00
2023-05-05T11:28:26.392Z,21.74
2023-05-05T11:31:26.250Z,22.03
2023-05-05T11:33:55.114Z,23.40
2023-05-05T11:36:39.539Z,23.57
2023-05-05T11:39:09.400Z,22.96
2023-05-05T11:42:16.066Z,23.24
2023-05-05T11:44:43.466Z,23.16
2023-05-05T11:47:40.979Z,22.78
2023-05-05T11:50:20.806Z,22.86
2023-05-05T11:52:48.220Z,23.00
2023-05-05T11:55:20.094Z,22.79
2023-05-05T11:57:47.392Z,22.87
2023-05-05T12:00:15.623Z,22.94
2023-05-05T12:02:43.120Z,23.56
2023-05-05T12:05:10.717Z,23.66
2023-05-05T12:07:39.492Z,23.99
2023-05-05T12:10:07.812Z,23.89
2023-05-05T12:12:37.056Z,23.64
2023-05-05T12:15:05.330Z,24.35
2023-05-05T12:17:40.239Z,23.76
2023-05-05T12:20:09.591Z,24.70
2023-05-05T12:22:38.857Z,23.98
2023-05-05T12:25:07.635Z,23.66
2023-05-05T12:27:35.577Z,23.88
2023-05-05T12:30:15.032Z,24.19
2023-05-05T12:32:44.290Z,24.76
2023-05-05T12:35:12.659Z,24.61
2023-05-05T12:37:42.997Z,24.48
2023-05-05T12:40:44.092Z,25.07
2023-05-05T12:43:24.314Z,23.57
2023-05-05T12:45:59.447Z,23.92
2023-05-05T12:48:27.200Z,22.94
2023-05-05T12:50:54.563Z,22.86
2023-05-05T12:53:23.921Z,23.70
2023-05-05T12:55:51.693Z,23.49
2023-05-05T12:58:19.589Z,24.05
2023-05-05T13:01:10.780Z,24.00
2023-05-05T13:03:38.254Z,23.81
2023-05-05T13:06:19.155Z,24.54
2023-05-05T13:08:47.844Z,24.14
2023-05-05T13:11:15.045Z,24.02
2023-05-05T13:13:42.382Z,23.90
2023-05-05T13:16:09.630Z,23.83
2023-05-05T13:18:43.944Z,23.98
2023-05-05T13:21:11.278Z,23.42
2023-05-05T13:23:38.614Z,23.32
2023-05-05T13:26:07.398Z,22.86
2023-05-05T13:28:34.783Z,23.54
2023-05-05T13:31:02.109Z,23.61
2023-05-05T13:33:29.342Z,23.43
2023-05-05T13:35:56.644Z,23.48
2023-05-05T13:38:23.907Z,23.05
2023-05-05T13:40:53.253Z,22.52
2023-05-05T13:43:21.849Z,23.24
2023-05-05T13:45:49.141Z,23.25
2023-05-05T13:48:16.455Z,23.46
2023-05-05T13:50:43.810Z,23.57
2023-05-05T13:53:11.060Z,24.15
2023-05-05T13:55:38.718Z,24.02
2023-05-05T13:58:05.958Z,24.06
2023-05-05T14:00:34.713Z,23.59
2023-05-05T14:03:02.248Z,23.86
2023-05-05T14:05:29.586Z,23.34
2023-05-05T14:07:56.835Z,22.66
2023-05-05T14:10:24.207Z,22.34
2023-05-05T14:12:51.500Z,22.04
2023-05-05T14:15:19.289Z,21.93
2023-05-05T14:17:47.981Z,22.02
2023-05-05T14:20:15.189Z,21.97
2023-05-05T14:22:42.386Z,21.49
2023-05-05T14:25:10.030Z,21.37
2023-05-05T14:27:37.938Z,21.80
2023-05-05T14:30:06.499Z,21.43
2023-05-05T14:32:33.792Z,21.73
2023-05-05T14:35:02.625Z,22.20
2023-05-05T14:37:29.876Z,22.23
2023-05-05T14:39:57.157Z,22.27
2023-05-05T14:42:24.464Z,22.07
2023-05-05T14:44:51.885Z,22.41
2023-05-05T14:47:19.297Z,21.91
2023-05-05T14:49:46.672Z,22.01
2023-05-05T14:52:15.267Z,22.00
2023-05-05T14:54:43.049Z,22.34
2023-05-05T14:57:10.348Z,22.21
2023-05-05T14:59:37.628Z,21.87
2023-05-05T15:02:05.018Z,21.43
2023-05-05T15:04:32.402Z,21.41
2023-05-05T15:06:59.642Z,21.23
2023-05-05T15:09:28.643Z,21.35
2023-05-05T15:11:56.492Z,21.53
2023-05-05T15:14:24.215Z,21.73
2023-05-05T15:16:51.614Z,21.69
2023-05-05T15:19:18.998Z,21.53
2023-05-05T15:21:46.270Z,21.10
2023-05-05T15:24:13.621Z,21.22
2023-05-05T15:26:42.221Z,20.97
2023-05-05T15:29:09.525Z,20.90
2023-05-05T15:31:36.916Z,20.63
2023-05-05T15:34:04.296Z,20.63
2023-05-05T15:36:31.578Z,20.46
2023-05-05T15:38:58.883Z,20.24
2023-05-05T15:41:26.136Z,20.07
2023-05-05T15:44:05.082Z,19.96
2023-05-05T15:46:32.479Z,19.68
2023-05-05T15:48:59.793Z,19.51
2023-05-05T15:51:27.553Z,19.42
2023-05-05T15:53:54.900Z,19.28
2023-05-05T15:56:22.264Z,19.25
2023-05-05T15:58:49.640Z,19.16
2023-05-05T16:01:18.428Z,19.13
2023-05-05T16:03:46.235Z,19.14
2023-05-05T16:06:13.660Z,19.03
2023-05-05T16:08:40.898Z,18.92
2023-05-05T16:11:08.252Z,18.95
2023-05-05T16:13:35.489Z,18.89
2023-05-05T16:16:02.796Z,18.75
2023-05-05T16:18:31.447Z,18.76
2023-05-05T16:20:58.733Z,18.69
2023-05-05T16:23:25.993Z,18.65
2023-05-05T16:25:53.233Z,18.57
2023-05-05T16:28:20.501Z,18.43
2023-05-05T16:30:47.789Z,18.17
2023-05-05T16:33:15.043Z,17.62
2023-05-05T16:35:45.107Z,17.05
2023-05-05T16:38:12.819Z,16.65
2023-05-05T16:40:40.387Z,16.26
2023-05-05T16:43:07.690Z,16.08
2023-05-05T16:45:34.979Z,15.96
2023-05-05T16:48:02.293Z,15.95
2023-05-05T16:50:30.100Z,15.92
2023-05-05T16:52:58.670Z,15.41
2023-05-05T16:55:26.007Z,15.25
2023-05-05T16:57:53.281Z,15.18
2023-05-05T17:00:20.747Z,15.05
2023-05-05T17:02:48.104Z,14.96
2023-05-05T17:05:16.221Z,14.74
2023-05-05T17:07:43.592Z,14.56
2023-05-05T17:10:12.310Z,14.55
2023-05-05T17:12:39.561Z,14.64
2023-05-05T17:15:08.514Z,14.43
2023-05-05T17:17:35.946Z,14.45
2023-05-05T17:20:03.687Z,14.41
2023-05-05T17:22:30.863Z,14.34
2023-05-05T17:25:00.731Z,14.29
2023-05-05T17:27:29.547Z,14.26
2023-05-05T17:29:56.781Z,14.19
2023-05-05T17:32:24.104Z,14.37
2023-05-05T17:34:51.492Z,14.38
2023-05-05T17:37:18.736Z,14.32
2023-05-05T17:39:46.252Z,14.28
2023-05-05T17:42:13.535Z,14.31
2023-05-05T17:44:42.189Z,14.35
2023-05-05T17:47:09.600Z,14.26
2023-05-05T17:49:36.966Z,14.14
2023-05-05T17:52:04.713Z,14.25
2023-05-05T17:54:32.009Z,14.21
2023-05-05T17:56:59.362Z,14.14
2023-05-05T17:59:26.599Z,14.05
2023-05-05T18:01:55.211Z,14.17
2023-05-05T18:04:22.484Z,14.17
2023-05-05T18:06:49.673Z,14.16
2023-05-05T18:09:17.735Z,14.30
2023-05-05T18:11:45.037Z,13.95
2023-05-05T18:14:12.268Z,13.96
2023-05-05T18:16:39.777Z,13.95
2023-05-05T18:19:08.588Z,13.88
2023-05-05T18:21:35.800Z,13.71
2023-05-05T18:24:15.882Z,13.70
2023-05-05T18:26:47.750Z,13.75
2023-05-05T18:29:14.910Z,13.88
2023-05-05T18:31:42.403Z,13.97
2023-05-05T18:34:11.211Z,14.20
2023-05-05T18:36:38.523Z,13.96
2023-05-05T18:39:05.724Z,14.06
2023-05-05T18:41:33.099Z,14.04
2023-05-05T18:44:00.387Z,14.11
2023-05-05T18:46:27.868Z,14.28
2023-05-05T18:48:55.284Z,14.16
2023-05-05T18:51:23.972Z,14.02
2023-05-05T18:53:51.180Z,14.02
2023-05-05T18:56:18.720Z,14.04
2023-05-05T18:58:46.482Z,14.02
2023-05-05T19:01:14.015Z,14.00
2023-05-05T19:03:46.330Z,13.95
2023-05-05T19:06:13.754Z,13.93
2023-05-05T19:08:42.707Z,13.95
2023-05-05T19:11:10.144Z,14.04
2023-05-05T19:16:06.343Z,14.12
2023-05-05T19:18:33.665Z,13.82
2023-05-05T19:21:01.679Z,13.90
2023-05-05T19:23:28.956Z,13.93
2023-05-05T19:25:57.825Z,13.90
2023-05-05T19:28:25.114Z,13.90
2023-05-05T19:30:52.472Z,14.00
2023-05-05T19:33:20.063Z,14.07
2023-05-05T19:35:47.708Z,13.95
2023-05-05T19:38:15.037Z,14.12
2023-05-05T19:40:43.268Z,14.11
2023-05-05T19:43:11.888Z,13.91
2023-05-05T19:45:39.263Z,13.79
2023-05-05T19:48:06.630Z,13.91
2023-05-05T19:50:34.562Z,13.83
2023-05-05T19:53:03.257Z,13.82
2023-05-05T19:55:30.618Z,13.87
2023-05-05T19:57:57.982Z,13.92
2023-05-05T20:00:30.028Z,13.87
2023-05-05T20:02:57.477Z,14.00
2023-05-05T20:05:24.803Z,13.98
2023-05-05T20:07:52.262Z,13.91
2023-05-05T20:10:20.090Z,13.90
2023-05-05T20:12:47.886Z,13.84
2023-05-05T20:15:16.084Z,13.87
2023-05-05T20:17:45.252Z,13.79
2023-05-05T20:20:15.199Z,13.79
2023-05-05T20:22:42.668Z,13.80
2023-05-05T20:25:10.341Z,13.80
2023-05-05T20:27:37.853Z,13.82
2023-05-05T20:30:06.409Z,13.83
2023-05-05T20:32:34.054Z,13.67
2023-05-05T20:35:02.911Z,13.68
2023-05-05T20:37:30.124Z,13.60
2023-05-05T20:39:57.584Z,13.56
2023-05-05T20:42:24.867Z,13.59
2023-05-05T20:44:52.206Z,13.58
2023-05-05T20:47:19.559Z,13.53
2023-05-05T20:49:46.836Z,13.67
2023-05-05T20:52:15.616Z,13.51
2023-05-05T20:54:42.906Z,13.38
2023-05-05T20:57:10.675Z,13.44
2023-05-05T20:59:38.210Z,13.45
2023-05-05T21:02:05.713Z,13.43
2023-05-05T21:04:33.142Z,13.45
2023-05-05T21:07:00.624Z,13.44
2023-05-05T21:09:29.337Z,13.58
2023-05-05T21:11:56.710Z,13.53
2023-05-05T21:14:23.921Z,13.51
2023-05-05T21:16:51.296Z,13.56
2023-05-05T21:19:18.792Z,13.44
2023-05-05T21:21:46.169Z,13.43
2023-05-05T21:24:13.476Z,13.42
2023-05-05T21:26:43.748Z,13.41
2023-05-05T21:29:11.424Z,13.42
2023-05-05T21:31:38.838Z,13.42
2023-05-05T21:34:06.198Z,13.45
2023-05-05T21:36:33.428Z,13.47
2023-05-05T21:39:00.690Z,13.36
2023-05-05T21:41:28.328Z,13.46
2023-05-05T21:43:57.766Z,13.44
2023-05-05T21:46:25.251Z,13.41
2023-05-05T21:48:52.641Z,13.46
2023-05-05T21:51:20.103Z,13.38
2023-05-05T21:53:47.474Z,13.42
2023-05-05T21:56:14.926Z,13.43
2023-05-05T21:58:42.120Z,13.43
2023-05-05T22:01:12.140Z,13.43
2023-05-05T22:03:39.521Z,13.42
2023-05-05T22:06:06.876Z,13.46
2023-05-05T22:08:34.161Z,13.46
2023-05-05T22:11:01.486Z,13.38
2023-05-05T22:13:28.852Z,13.36
2023-05-05T22:15:56.286Z,13.47
2023-05-05T22:18:25.017Z,13.41
2023-05-05T22:20:52.312Z,13.55
2023-05-05T22:23:19.593Z,13.47
2023-05-05T22:25:46.868Z,13.54
2023-05-05T22:28:14.281Z,13.52
2023-05-05T22:30:41.669Z,13.47
2023-05-05T22:33:09.025Z,13.54
2023-05-05T22:35:38.276Z,13.47
2023-05-05T22:38:05.684Z,13.53
2023-05-05T22:40:33.000Z,13.46
2023-05-05T22:43:00.256Z,13.39
2023-05-05T22:45:27.682Z,13.45
2023-05-05T22:47:54.960Z,13.46
2023-05-05T22:50:22.480Z,13.49
2023-05-05T22:52:51.178Z,13.47
2023-05-05T22:55:18.859Z,13.39
2023-05-05T22:57:46.365Z,13.42
2023-05-05T23:00:13.982Z,13.38
2023-05-05T23:02:41.301Z,13.44
2023-05-05T23:05:09.619Z,13.39
2023-05-05T23:07:37.095Z,13.38
2023-05-05T23:10:06.895Z,13.47
2023-05-05T23:12:34.242Z,13.38
2023-05-05T23:15:01.669Z,13.35
2023-05-05T23:17:28.938Z,13.36
2023-05-05T23:19:56.283Z,13.40
2023-05-05T23:22:23.579Z,13.36
2023-05-05T23:24:50.981Z,13.40
2023-05-05T23:27:19.815Z,13.32
2023-05-05T23:29:47.178Z,13.28
2023-05-05T23:32:14.459Z,13.37
2023-05-05T23:34:41.818Z,13.26
2023-05-05T23:37:09.104Z,13.33
2023-05-05T23:39:36.534Z,13.27
2023-05-05T23:42:03.952Z,13.19
2023-05-05T23:44:32.564Z,13.17
2023-05-05T23:46:59.822Z,13.14
2023-05-05T23:49:27.106Z,13.14
2023-05-05T23:51:54.368Z,13.10
2023-05-05T23:54:21.706Z,13.13
2023-05-05T23:56:48.934Z,13.09
2023-05-05T23:59:16.429Z,13.10
